Time;durP1;ratioP1;P1;durP2;ratioP2;P2;SDS_P1;SDS_P2;PMS_P1;PMS_P2;Temp;Humidity;BMP_temperature;BMP_pressure;BME280_temperature;BME280_humidity;BME280_pressure;Samples;Min_cycle;Max_cycle;Signal;HPM_P1;HPM_P2
2023/05/01 00:04:20;;;;;;;2.70;1.75;;;15.70;94.50;;;;;;10354797;28;20084;-82
2023/05/01 00:09:21;;;;;;;2.63;1.90;;;15.10;94.30;;;;;;10357665;28;20033;-83
2023/05/01 00:14:21;;;;;;;3.13;1.90;;;15.00;94.30;;;;;;10360970;28;20374;-83
2023/05/01 00:19:22;;;;;;;2.40;1.77;;;15.00;94.30;;;;;;10359283;28;20022;-82
2023/05/01 00:24:23;;;;;;;3.47;2.20;;;15.00;94.30;;;;;;10357562;28;20022;-83
2023/05/01 00:29:23;;;;;;;3.17;1.83;;;14.90;94.30;;;;;;10352591;28;20350;-82
2023/05/01 00:34:24;;;;;;;3.53;1.80;;;15.10;94.30;;;;;;10355953;28;20027;-82
2023/05/01 00:39:24;;;;;;;3.42;2.17;;;15.20;94.40;;;;;;10355160;28;20041;-82
2023/05/01 00:44:25;;;;;;;2.65;1.90;;;14.90;94.30;;;;;;10356731;28;20117;-82
2023/05/01 00:49:26;;;;;;;3.97;2.13;;;14.80;94.20;;;;;;10356813;28;20029;-82
2023/05/01 00:54:27;;;;;;;3.30;2.45;;;14.90;94.30;;;;;;10358102;28;20526;-83
2023/05/01 00:59:28;;;;;;;2.30;1.85;;;14.70;94.20;;;;;;10349453;28;20026;-82
2023/05/01 01:04:31;;;;;;;2.97;2.35;;;14.70;94.20;;;;;;10353884;28;20030;-83
2023/05/01 01:09:53;;;;;;;3.40;2.25;;;15.00;94.20;;;;;;10360108;28;20030;-83
2023/05/01 01:15:08;;;;;;;3.35;2.20;;;14.60;94.10;;;;;;10356365;28;20018;-82
2023/05/01 01:20:33;;;;;;;3.00;2.20;;;14.60;94.10;;;;;;10371350;28;20091;-83
2023/05/01 01:25:49;;;;;;;3.78;2.60;;;14.60;94.10;;;;;;10359547;28;20417;-82
2023/05/01 01:31:08;;;;;;;3.50;2.30;;;14.50;94.10;;;;;;10358913;28;20054;-86
2023/05/01 01:36:12;;;;;;;;;;;14.50;94.10;;;;;;10359937;28;20049;-85
2023/05/01 01:41:29;;;;;;;4.78;2.60;;;14.50;93.90;;;;;;10362514;28;19971;-85
2023/05/01 01:46:35;;;;;;;5.05;2.40;;;14.40;94.00;;;;;;10354758;28;20027;-85
2023/05/01 01:51:40;;;;;;;3.17;2.45;;;14.40;94.00;;;;;;10357399;28;20022;-85
2023/05/01 01:56:42;;;;;;;3.13;2.28;;;14.40;94.00;;;;;;10356449;28;20018;-86
2023/05/01 02:01:43;;;;;;;3.40;2.50;;;14.40;94.00;;;;;;10360084;28;20029;-85
2023/05/01 02:06:45;;;;;;;3.53;2.70;;;14.30;94.00;;;;;;10359644;28;20109;-85
2023/05/01 02:11:48;;;;;;;3.83;2.60;;;14.40;94.00;;;;;;10358682;28;20022;-86
2023/05/01 02:16:49;;;;;;;4.53;2.85;;;14.30;94.00;;;;;;10357120;28;20021;-85
2023/05/01 02:21:52;;;;;;;5.28;2.30;;;14.30;94.00;;;;;;10363242;28;20033;-85
2023/05/01 02:26:58;;;;;;;4.05;2.50;;;14.20;94.00;;;;;;10359990;28;20020;-85
2023/05/01 02:31:59;;;;;;;4.35;2.70;;;14.50;94.10;;;;;;10361657;28;20029;-85
2023/05/01 02:37:01;;;;;;;2.95;2.20;;;14.20;94.00;;;;;;10369435;28;20125;-85
2023/05/01 02:42:05;;;;;;;4.18;2.85;;;14.20;94.00;;;;;;10377534;28;20440;-85
2023/05/01 02:47:07;;;;;;;4.03;2.80;;;14.10;94.00;;;;;;10360512;28;20032;-86
2023/05/01 02:52:10;;;;;;;4.47;2.22;;;14.10;94.00;;;;;;10366050;28;20028;-85
2023/05/01 02:57:11;;;;;;;2.75;1.88;;;14.00;94.00;;;;;;10360426;28;20026;-87
2023/05/01 03:02:12;;;;;;;2.88;2.30;;;14.00;94.00;;;;;;10359373;28;20708;-85
2023/05/01 03:07:13;;;;;;;3.53;2.50;;;14.10;94.00;;;;;;10364458;28;20200;-85
2023/05/01 03:12:13;;;;;;;4.50;2.17;;;14.40;94.10;;;;;;10358849;28;20490;-86
2023/05/01 03:17:14;;;;;;;2.85;2.38;;;14.00;94.00;;;;;;10364733;28;20040;-85
2023/05/01 03:22:15;;;;;;;6.38;2.35;;;13.90;94.00;;;;;;10351891;28;20274;-85
2023/05/01 03:27:15;;;;;;;3.72;2.42;;;13.90;93.90;;;;;;10364379;28;20022;-85
2023/05/01 03:32:16;;;;;;;4.13;2.45;;;13.90;93.90;;;;;;10359391;28;20033;-86
2023/05/01 03:37:17;;;;;;;4.28;2.42;;;14.00;93.90;;;;;;10352815;28;20143;-85
2023/05/01 03:42:18;;;;;;;3.00;2.20;;;13.80;93.90;;;;;;10373972;28;20036;-85
2023/05/01 03:47:19;;;;;;;3.97;2.33;;;13.90;93.90;;;;;;10354320;28;20018;-85
2023/05/01 03:52:19;;;;;;;4.93;2.42;;;13.80;93.90;;;;;;10365072;28;20025;-85
2023/05/01 03:57:22;;;;;;;3.85;2.47;;;13.70;93.80;;;;;;10361595;28;20057;-85
2023/05/01 04:02:23;;;;;;;5.55;2.60;;;13.70;93.80;;;;;;10366252;28;20040;-85
2023/05/01 04:07:23;;;;;;;5.57;2.40;;;13.70;93.80;;;;;;10362702;28;20355;-85
2023/05/01 04:12:24;;;;;;;4.93;2.25;;;13.70;93.80;;;;;;10355505;28;20026;-85
2023/05/01 04:17:25;;;;;;;3.50;2.55;;;13.60;93.80;;;;;;10354614;28;20189;-86
2023/05/01 04:22:25;;;;;;;4.88;2.35;;;14.30;94.00;;;;;;10354686;28;20033;-85
2023/05/01 04:27:26;;;;;;;4.20;2.63;;;13.60;93.80;;;;;;10364539;28;20018;-86
2023/05/01 04:32:27;;;;;;;3.33;2.35;;;13.60;93.80;;;;;;10350008;28;20042;-86
2023/05/01 04:37:28;;;;;;;4.50;2.42;;;13.60;93.80;;;;;;10361740;28;20045;-85
2023/05/01 04:42:32;;;;;;;5.05;2.42;;;13.50;93.70;;;;;;10362059;28;20022;-85
2023/05/01 04:47:32;;;;;;;5.50;2.20;;;13.50;93.70;;;;;;10356914;28;20493;-85
2023/05/01 04:52:34;;;;;;;2.97;2.30;;;13.50;93.70;;;;;;10362422;28;20027;-85
2023/05/01 04:57:35;;;;;;;3.65;2.05;;;13.50;93.70;;;;;;10356421;28;20034;-85
2023/05/01 05:02:35;;;;;;;5.57;2.40;;;13.60;93.70;;;;;;10361991;28;20489;-86
2023/05/01 05:07:36;;;;;;;3.97;2.35;;;13.70;93.70;;;;;;10356331;28;20049;-85
2023/05/01 05:12:37;;;;;;;3.42;2.20;;;13.80;93.70;;;;;;10356155;28;20029;-85
2023/05/01 05:17:37;;;;;;;3.23;2.27;;;13.50;93.60;;;;;;10366177;28;20030;-86
2023/05/01 05:22:38;;;;;;;2.90;1.92;;;13.50;93.60;;;;;;10359841;28;20259;-85
2023/05/01 05:27:38;;;;;;;3.08;2.13;;;13.40;93.50;;;;;;10354869;28;20019;-85
2023/05/01 05:32:39;;;;;;;5.00;2.25;;;13.50;93.50;;;;;;10348138;28;20022;-86
2023/05/01 05:37:40;;;;;;;4.13;2.15;;;13.50;93.50;;;;;;10366939;28;20031;-85
2023/05/01 05:42:40;;;;;;;2.95;2.13;;;14.00;93.60;;;;;;10358755;28;20021;-85
2023/05/01 05:47:41;;;;;;;3.05;1.95;;;13.50;93.50;;;;;;10355043;28;20030;-87
2023/05/01 05:52:41;;;;;;;5.00;2.25;;;13.50;93.40;;;;;;10356802;28;20117;-85
2023/05/01 05:57:42;;;;;;;3.88;2.20;;;14.10;93.60;;;;;;10358594;28;20029;-85
2023/05/01 06:02:43;;;;;;;4.30;2.45;;;14.00;93.50;;;;;;10352889;28;20030;-82
2023/05/01 06:07:43;;;;;;;3.65;2.10;;;13.50;93.40;;;;;;10368942;28;20021;-85
2023/05/01 06:12:44;;;;;;;5.28;2.22;;;14.30;93.60;;;;;;10370705;28;20513;-84
2023/05/01 06:17:45;;;;;;;4.95;2.28;;;13.60;93.70;;;;;;10370629;28;20156;-85
2023/05/01 06:22:45;;;;;;;3.17;2.05;;;14.00;93.50;;;;;;10372303;28;20387;-83
2023/05/01 06:27:46;;;;;;;3.78;1.73;;;14.30;93.60;;;;;;10362692;28;20030;-83
2023/05/01 06:32:47;;;;;;;4.13;2.35;;;13.60;93.40;;;;;;10364523;28;20045;-87
2023/05/01 06:37:48;;;;;;;2.75;1.88;;;13.60;93.40;;;;;;10370048;28;20084;-85
2023/05/01 06:42:49;;;;;;;2.92;2.03;;;13.50;93.40;;;;;;10369080;28;20095;-83
2023/05/01 06:47:49;;;;;;;3.03;2.10;;;13.50;93.30;;;;;;10371571;28;20017;-84
2023/05/01 06:52:50;;;;;;;2.97;2.00;;;13.50;93.30;;;;;;10365180;28;20075;-85
2023/05/01 06:57:50;;;;;;;3.97;2.33;;;13.80;93.40;;;;;;10361321;28;20024;-85
2023/05/01 07:02:51;;;;;;;2.55;2.08;;;13.60;93.30;;;;;;10359641;28;20168;-84
2023/05/01 07:07:51;;;;;;;3.92;2.38;;;13.60;93.30;;;;;;10366405;28;20021;-84
2023/05/01 07:12:52;;;;;;;4.65;2.55;;;13.60;93.30;;;;;;10371905;28;20048;-84
2023/05/01 07:17:55;;;;;;;3.40;2.25;;;13.50;93.30;;;;;;10364520;28;20497;-84
2023/05/01 07:22:57;;;;;;;4.90;2.38;;;14.30;93.50;;;;;;10359449;28;20147;-84
2023/05/01 07:27:59;;;;;;;3.40;2.15;;;14.10;93.40;;;;;;10375661;28;20025;-84
2023/05/01 07:33:00;;;;;;;3.78;2.38;;;13.80;93.30;;;;;;10372116;28;20101;-83
2023/05/01 07:38:01;;;;;;;4.18;2.28;;;13.60;93.30;;;;;;10369455;28;20036;-85
2023/05/01 07:43:01;;;;;;;3.88;2.25;;;13.70;93.30;;;;;;10360058;28;20032;-85
2023/05/01 07:48:03;;;;;;;4.45;2.60;;;14.00;93.30;;;;;;10364247;28;20036;-85
2023/05/01 07:53:04;;;;;;;3.70;2.40;;;13.60;93.20;;;;;;10358914;28;20054;-84
2023/05/01 07:58:05;;;;;;;5.15;2.60;;;13.70;93.20;;;;;;10364372;28;20129;-85
2023/05/01 08:03:05;;;;;;;6.60;2.65;;;13.70;93.10;;;;;;10361217;28;20042;-86
2023/05/01 08:08:06;;;;;;;3.25;2.30;;;13.70;93.10;;;;;;10370693;28;20026;-86
2023/05/01 08:13:07;;;;;;;3.53;2.50;;;13.80;93.10;;;;;;10363183;28;20026;-85
2023/05/01 08:18:08;;;;;;;4.40;2.05;;;13.80;93.10;;;;;;10358323;28;20040;-85
2023/05/01 08:23:10;;;;;;;3.45;2.20;;;13.80;93.10;;;;;;10362020;28;20336;-85
2023/05/01 08:28:10;;;;;;;3.75;2.25;;;13.80;93.00;;;;;;10343564;28;20022;-85
2023/05/01 08:33:11;;;;;;;4.07;2.25;;;14.20;93.10;;;;;;10362530;28;20026;-85
2023/05/01 08:38:12;;;;;;;4.80;2.55;;;14.00;93.00;;;;;;10355187;28;20452;-87
2023/05/01 08:43:13;;;;;;;4.03;2.20;;;14.00;93.00;;;;;;10367197;28;20037;-85
2023/05/01 08:48:17;;;;;;;4.47;2.60;;;14.30;93.00;;;;;;10373933;28;20053;-85
2023/05/01 08:53:19;;;;;;;4.65;2.28;;;14.40;93.10;;;;;;10363105;28;20030;-85
2023/05/01 08:58:23;;;;;;;4.53;2.60;;;14.10;93.00;;;;;;10358468;28;20429;-84
2023/05/01 09:03:25;;;;;;;5.47;2.47;;;14.10;92.90;;;;;;10363945;28;20291;-85
2023/05/01 09:08:26;;;;;;;4.03;2.10;;;14.40;93.00;;;;;;10360519;28;20094;-83
2023/05/01 09:13:27;;;;;;;4.05;2.03;;;14.20;92.90;;;;;;10358039;28;20053;-83
2023/05/01 09:18:30;;;;;;;4.82;2.42;;;14.50;92.90;;;;;;10373885;28;20061;-84
2023/05/01 09:23:31;;;;;;;4.75;2.40;;;15.10;93.10;;;;;;10362721;28;20540;-84
2023/05/01 09:28:46;;;;;;;4.93;2.50;;;14.30;92.80;;;;;;10362186;28;20490;-84
2023/05/01 09:33:53;;;;;;;4.47;2.28;;;14.40;92.80;;;;;;10361536;28;20057;-85
2023/05/01 09:38:53;;;;;;;4.88;2.25;;;14.50;92.70;;;;;;10373137;28;20085;-84
2023/05/01 09:43:56;;;;;;;3.58;2.35;;;14.90;92.80;;;;;;10372002;28;20112;-85
2023/05/01 09:49:02;;;;;;;3.22;1.90;;;14.60;92.60;;;;;;10363245;28;20485;-85
2023/05/01 09:54:04;;;;;;;3.42;1.90;;;15.30;92.70;;;;;;10367519;28;20022;-84
2023/05/01 09:59:16;;;;;;;3.60;1.92;;;14.70;92.50;;;;;;10368948;28;20052;-86
2023/05/01 10:04:28;;;;;;;3.75;1.98;;;14.80;92.50;;;;;;10403588;28;20057;-86
2023/05/01 10:09:31;;;;;;;3.15;1.92;;;15.10;92.50;;;;;;10373120;28;20032;-85
2023/05/01 10:14:37;;;;;;;2.65;2.08;;;14.90;92.40;;;;;;10372519;28;20026;-86
2023/05/01 10:19:37;;;;;;;2.58;1.70;;;15.40;92.50;;;;;;10368511;28;20437;-88
2023/05/01 10:24:42;;;;;;;4.03;1.92;;;15.00;92.30;;;;;;10368298;28;20034;-85
2023/05/01 10:29:46;;;;;;;4.18;2.10;;;15.20;92.30;;;;;;10369339;28;20589;-87
2023/05/01 10:34:53;;;;;;;2.28;1.80;;;15.10;92.20;;;;;;10375528;28;20104;-87
2023/05/01 10:39:54;;;;;;;3.78;2.20;;;15.20;92.20;;;;;;10385031;28;20046;-86
2023/05/01 10:45:28;;;;;;;3.90;1.83;;;15.50;92.30;;;;;;10361901;28;20026;-85
2023/05/01 10:50:29;;;;;;;3.40;1.98;;;15.30;92.20;;;;;;10346362;28;20120;-85
2023/05/01 10:55:43;;;;;;;2.40;1.88;;;15.40;92.20;;;;;;10362717;28;20029;-87
2023/05/01 11:01:27;;;;;;;3.42;2.00;;;15.40;92.20;;;;;;10375354;28;20022;-87
2023/05/01 11:06:28;;;;;;;3.40;1.75;;;15.50;92.20;;;;;;10358589;28;20500;-85
2023/05/01 11:11:29;;;;;;;3.30;1.60;;;15.60;92.20;;;;;;10362796;28;20026;-86
2023/05/01 11:16:36;;;;;;;2.75;1.75;;;15.60;92.20;;;;;;10367176;28;20390;-85
2023/05/01 11:21:39;;;;;;;3.22;1.80;;;15.70;92.20;;;;;;10359635;28;20474;-85
2023/05/01 11:26:41;;;;;;;1.95;1.58;;;15.80;92.20;;;;;;10361283;28;20076;-87
2023/05/01 11:31:47;;;;;;;2.58;1.58;;;15.80;92.20;;;;;;10362217;28;20474;-87
2023/05/01 11:36:49;;;;;;;4.30;1.52;;;15.90;92.20;;;;;;10364807;28;20049;-85
2023/05/01 11:41:50;;;;;;;3.05;1.50;;;16.00;92.20;;;;;;10373677;28;20351;-85
2023/05/01 11:46:56;;;;;;;2.33;1.50;;;16.10;92.20;;;;;;10359718;28;20038;-82
2023/05/01 11:51:58;;;;;;;3.42;1.70;;;16.40;88.40;;;;;;10350868;28;20024;-84
2023/05/01 11:57:02;;;;;;;4.10;1.65;;;16.70;87.80;;;;;;10360624;28;20058;-84
2023/05/01 12:02:03;;;;;;;6.70;1.50;;;17.00;86.20;;;;;;10360234;28;20644;-84
2023/05/01 12:07:03;;;;;;;2.95;1.83;;;17.20;85.50;;;;;;10372935;28;20030;-84
2023/05/01 12:12:04;;;;;;;2.88;1.52;;;17.30;83.90;;;;;;10358058;28;20021;-84
2023/05/01 12:17:05;;;;;;;4.30;1.60;;;17.50;82.20;;;;;;10368024;28;20042;-83
2023/05/01 12:22:09;;;;;;;3.20;1.50;;;17.80;81.30;;;;;;10350756;28;20021;-83
2023/05/01 12:27:10;;;;;;;3.17;1.80;;;17.80;80.30;;;;;;10364851;28;20037;-84
2023/05/01 12:32:10;;;;;;;2.55;1.73;;;17.90;80.40;;;;;;10359328;28;20037;-86
2023/05/01 12:37:11;;;;;;;3.63;2.10;;;17.90;79.50;;;;;;10361161;28;20038;-82
2023/05/01 12:42:16;;;;;;;4.78;2.13;;;18.00;79.10;;;;;;10369467;28;20034;-85
2023/05/01 12:47:17;;;;;;;3.95;2.38;;;18.10;78.50;;;;;;10358313;28;20037;-83
2023/05/01 12:52:25;;;;;;;4.78;2.10;;;18.10;79.00;;;;;;10360175;28;20532;-85
2023/05/01 12:57:26;;;;;;;5.80;2.10;;;18.00;75.60;;;;;;10365866;28;20406;-82
2023/05/01 13:02:31;;;;;;;4.63;2.63;;;17.90;77.70;;;;;;10362237;28;20026;-83
2023/05/01 13:07:33;;;;;;;4.47;1.95;;;17.80;77.90;;;;;;10360111;28;20033;-82
2023/05/01 13:12:43;;;;;;;4.00;1.95;;;17.90;79.70;;;;;;10366504;28;20076;-83
2023/05/01 13:17:44;;;;;;;4.35;1.88;;;17.70;80.40;;;;;;10373814;28;20042;-83
2023/05/01 13:22:45;;;;;;;3.25;1.77;;;18.00;82.00;;;;;;10376975;28;20026;-83
2023/05/01 13:27:52;;;;;;;2.20;1.63;;;17.60;82.80;;;;;;10371207;28;20109;-83
2023/05/01 13:32:53;;;;;;;3.60;2.17;;;17.50;83.00;;;;;;10363102;28;20022;-83
2023/05/01 13:37:53;;;;;;;4.15;1.60;;;17.90;84.20;;;;;;10368462;28;20030;-83
2023/05/01 13:42:54;;;;;;;5.45;1.90;;;17.50;84.50;;;;;;10367071;28;20482;-84
2023/05/01 13:47:55;;;;;;;3.53;1.70;;;17.90;85.40;;;;;;10360950;28;20052;-88
2023/05/01 13:52:56;;;;;;;5.38;2.53;;;17.50;85.60;;;;;;10350898;28;20041;-85
2023/05/01 13:57:56;;;;;;;5.45;2.08;;;17.60;86.00;;;;;;10357589;28;20113;-85
2023/05/01 14:02:58;;;;;;;5.05;2.00;;;17.70;86.10;;;;;;10353234;28;20505;-86
2023/05/01 14:07:59;;;;;;;2.85;1.80;;;17.80;86.10;;;;;;10351942;28;20056;-86
2023/05/01 14:13:01;;;;;;;3.65;1.77;;;17.80;86.10;;;;;;10353480;28;20095;-87
2023/05/01 14:18:05;;;;;;;4.18;2.08;;;17.90;86.20;;;;;;10356768;28;20039;-86
2023/05/01 14:23:07;;;;;;;2.58;1.88;;;17.90;86.30;;;;;;10356751;28;20018;-85
2023/05/01 14:28:07;;;;;;;4.13;2.00;;;18.00;86.30;;;;;;10364062;28;20425;-86
2023/05/01 14:33:12;;;;;;;3.90;1.92;;;18.10;86.20;;;;;;10360740;28;20109;-86
2023/05/01 14:38:13;;;;;;;2.13;1.63;;;18.40;86.30;;;;;;10365233;28;20652;-87
2023/05/01 14:43:21;;;;;;;2.83;1.70;;;18.10;86.30;;;;;;10371285;28;20022;-87
2023/05/01 14:48:28;;;;;;;3.08;2.00;;;18.00;86.20;;;;;;10371010;28;20025;-86
2023/05/01 14:53:32;;;;;;;4.32;1.80;;;18.00;86.20;;;;;;10348297;28;20424;-86
2023/05/01 14:58:33;;;;;;;5.53;2.42;;;18.30;86.90;;;;;;10364424;28;20273;-86
2023/05/01 15:03:39;;;;;;;2.63;2.00;;;18.00;87.00;;;;;;10360573;28;20439;-87
2023/05/01 15:08:40;;;;;;;5.90;1.80;;;18.00;87.20;;;;;;10364343;28;20018;-87
2023/05/01 15:13:43;;;;;;;3.92;2.20;;;17.90;87.80;;;;;;10364755;28;20112;-87
2023/05/01 15:18:43;;;;;;;4.88;2.13;;;17.90;88.00;;;;;;10364208;28;20034;-87
2023/05/01 15:23:45;;;;;;;5.20;2.38;;;17.80;88.20;;;;;;10358460;28;20040;-87
2023/05/01 15:28:45;;;;;;;4.72;2.13;;;17.80;88.40;;;;;;10367331;28;20102;-87
2023/05/01 15:33:46;;;;;;;3.97;2.60;;;17.90;88.80;;;;;;10364779;28;20056;-87
2023/05/01 15:38:46;;;;;;;5.25;2.60;;;17.80;88.90;;;;;;10356310;28;20048;-87
2023/05/01 15:43:47;;;;;;;6.25;3.17;;;18.40;89.50;;;;;;10368432;28;20034;-86
2023/05/01 15:48:47;;;;;;;7.93;3.35;;;17.80;89.50;;;;;;10366984;28;20118;-86
2023/05/01 15:53:48;;;;;;;5.85;3.28;;;17.80;89.70;;;;;;10364068;28;20021;-85
2023/05/01 15:58:50;;;;;;;6.55;3.72;;;17.80;90.00;;;;;;10366030;28;20026;-85
2023/05/01 16:03:51;;;;;;;5.18;3.05;;;17.90;90.00;;;;;;10364385;28;20105;-87
2023/05/01 16:08:51;;;;;;;7.35;3.03;;;17.80;90.00;;;;;;10370615;28;20022;-87
2023/05/01 16:13:53;;;;;;;4.90;2.45;;;17.80;90.00;;;;;;10354103;28;20026;-87
2023/05/01 16:18:56;;;;;;;4.15;2.38;;;17.80;90.00;;;;;;10349877;28;20029;-87
2023/05/01 16:23:59;;;;;;;5.43;2.85;;;17.70;90.00;;;;;;10355931;28;20489;-84
2023/05/01 16:29:05;;;;;;;6.25;3.38;;;17.70;89.20;;;;;;10346373;28;20021;-84
2023/05/01 16:34:09;;;;;;;8.45;5.65;;;17.50;88.10;;;;;;10351963;28;20109;-84
2023/05/01 16:39:12;;;;;;;10.88;6.38;;;17.20;88.40;;;;;;10349488;28;20049;-84
2023/05/01 16:44:15;;;;;;;10.70;6.78;;;17.10;89.10;;;;;;10360984;28;20041;-84
2023/05/01 16:49:16;;;;;;;12.90;8.30;;;16.90;90.00;;;;;;10349665;28;20030;-83
2023/05/01 16:54:17;;;;;;;16.05;8.20;;;16.90;90.40;;;;;;10357984;28;20496;-81
2023/05/01 16:59:17;;;;;;;16.85;9.27;;;16.60;90.90;;;;;;10351402;28;20030;-84
2023/05/01 17:04:19;;;;;;;14.10;8.73;;;16.50;91.10;;;;;;10357121;28;20017;-86
2023/05/01 17:09:20;;;;;;;14.25;8.50;;;16.50;91.20;;;;;;10355671;28;20042;-87
2023/05/01 17:14:21;;;;;;;13.50;7.68;;;16.70;91.20;;;;;;10351637;28;20150;-86
2023/05/01 17:19:22;;;;;;;10.95;7.30;;;16.80;91.10;;;;;;10352942;28;20038;-87
2023/05/01 17:24:24;;;;;;;11.68;6.78;;;17.10;91.20;;;;;;10336462;28;20041;-86
2023/05/01 17:29:26;;;;;;;9.70;6.20;;;17.00;91.40;;;;;;10349579;28;20475;-88
2023/05/01 17:34:26;;;;;;;8.45;6.18;;;17.10;91.10;;;;;;10348362;28;20046;-87
2023/05/01 17:39:27;;;;;;;7.25;4.85;;;17.10;91.10;;;;;;10349966;28;20066;-86
2023/05/01 17:44:28;;;;;;;9.48;5.60;;;17.10;91.20;;;;;;10349366;28;20018;-86
2023/05/01 17:49:28;;;;;;;9.10;5.00;;;17.00;91.20;;;;;;10350339;28;20026;-86
2023/05/01 17:54:29;;;;;;;9.18;5.28;;;17.40;91.40;;;;;;10356018;28;20052;-87
2023/05/01 17:59:29;;;;;;;7.25;4.38;;;17.00;91.40;;;;;;10353655;28;20096;-86
2023/05/01 18:04:31;;;;;;;8.00;4.38;;;17.10;91.40;;;;;;10345861;28;20023;-87
2023/05/01 18:09:32;;;;;;;8.32;5.25;;;17.00;91.40;;;;;;10348872;28;20026;-87
2023/05/01 18:14:33;;;;;;;7.32;3.67;;;17.00;91.50;;;;;;10340273;28;20567;-87
2023/05/01 18:19:33;;;;;;;4.13;3.25;;;17.50;91.70;;;;;;10346912;28;20034;-86
2023/05/01 18:24:34;;;;;;;5.68;3.80;;;16.90;91.60;;;;;;10365800;28;20026;-86
2023/05/01 18:29:35;;;;;;;6.35;4.43;;;17.00;91.70;;;;;;10365300;28;20029;-87
2023/05/01 18:34:36;;;;;;;5.85;3.83;;;17.00;91.70;;;;;;10362166;28;20026;-86
2023/05/01 18:39:37;;;;;;;6.15;3.65;;;17.00;91.80;;;;;;10361265;28;20030;-86
2023/05/01 18:44:37;;;;;;;6.78;3.78;;;16.90;91.80;;;;;;10365535;28;20038;-84
2023/05/01 18:49:38;;;;;;;6.15;4.03;;;16.90;91.90;;;;;;10372669;28;20060;-86
2023/05/01 18:54:39;;;;;;;6.07;3.83;;;17.00;91.90;;;;;;10367597;28;20041;-86
2023/05/01 18:59:39;;;;;;;5.22;3.55;;;16.80;92.00;;;;;;10359551;28;20093;-86
2023/05/01 19:04:40;;;;;;;6.65;4.45;;;16.90;92.10;;;;;;10360280;28;20058;-86
2023/05/01 19:09:41;;;;;;;6.40;4.13;;;17.00;92.20;;;;;;10357285;28;20454;-86
2023/05/01 19:14:41;;;;;;;6.10;4.30;;;16.80;92.20;;;;;;10345329;28;20030;-86
2023/05/01 19:19:42;;;;;;;6.00;3.83;;;16.70;92.20;;;;;;10360737;28;20041;-86
2023/05/01 19:24:43;;;;;;;10.52;6.47;;;16.60;92.20;;;;;;10360704;28;20021;-83
2023/05/01 19:29:43;;;;;;;14.82;8.23;;;16.60;92.30;;;;;;10356320;28;20034;-86
2023/05/01 19:34:44;;;;;;;15.68;8.52;;;16.40;92.80;;;;;;10375222;28;20553;-85
2023/05/01 19:39:46;;;;;;;15.32;9.23;;;16.30;93.00;;;;;;10357685;28;20036;-85
2023/05/01 19:44:47;;;;;;;15.63;9.05;;;16.30;93.10;;;;;;10345758;28;20030;-84
2023/05/01 19:49:48;;;;;;;16.95;8.73;;;16.30;93.10;;;;;;10356959;28;20026;-85
2023/05/01 19:54:48;;;;;;;14.23;8.55;;;16.30;93.20;;;;;;10357813;28;20497;-86
2023/05/01 19:59:51;;;;;;;14.95;8.15;;;16.30;93.10;;;;;;10368368;28;20037;-86
2023/05/01 20:04:52;;;;;;;13.25;6.70;;;16.40;93.10;;;;;;10354702;28;20405;-87
2023/05/01 20:09:52;;;;;;;15.43;8.30;;;16.30;93.10;;;;;;10354279;28;20029;-85
2023/05/01 20:14:53;;;;;;;10.93;6.85;;;16.30;93.10;;;;;;10365159;28;20026;-84
2023/05/01 20:19:53;;;;;;;12.25;7.38;;;16.20;93.10;;;;;;10344276;28;20029;-84
2023/05/01 20:24:54;;;;;;;11.98;7.40;;;16.20;93.10;;;;;;10358954;28;20029;-84
2023/05/01 20:29:55;;;;;;;11.98;7.22;;;16.20;93.20;;;;;;10353333;28;20278;-84
2023/05/01 20:34:56;;;;;;;11.48;6.45;;;16.20;93.20;;;;;;10363617;28;20033;-83
2023/05/01 20:39:57;;;;;;;10.55;6.65;;;16.10;93.20;;;;;;10358200;28;20033;-85
2023/05/01 20:44:57;;;;;;;12.95;6.97;;;16.10;93.20;;;;;;10357779;28;20398;-84
2023/05/01 20:49:58;;;;;;;8.68;5.85;;;16.10;93.30;;;;;;10355253;28;20558;-83
2023/05/01 20:54:59;;;;;;;10.30;5.75;;;16.10;93.30;;;;;;10358644;28;20030;-83
2023/05/01 21:00:00;;;;;;;13.10;6.38;;;16.10;93.30;;;;;;10356247;28;20549;-83
2023/05/01 21:05:01;;;;;;;10.52;6.50;;;15.70;93.30;;;;;;10363282;28;20041;-83
2023/05/01 21:10:05;;;;;;;10.60;6.00;;;16.00;93.40;;;;;;10354957;28;20129;-85
2023/05/01 21:15:06;;;;;;;9.63;6.00;;;16.00;93.40;;;;;;10344450;28;20038;-85
2023/05/01 21:20:15;;;;;;;10.15;6.35;;;15.90;93.40;;;;;;10361721;28;20046;-84
2023/05/01 21:25:26;;;;;;;11.95;7.20;;;15.90;93.50;;;;;;10358890;28;20026;-85
2023/05/01 21:30:32;;;;;;;10.88;5.88;;;16.40;93.60;;;;;;10360931;28;20680;-85
2023/05/01 21:35:33;;;;;;;12.20;6.57;;;15.80;93.50;;;;;;10360650;28;20056;-85
2023/05/01 21:40:40;;;;;;;11.45;6.28;;;15.90;93.60;;;;;;10356078;28;20116;-84
2023/05/01 21:45:44;;;;;;;12.18;6.47;;;16.10;93.70;;;;;;10370096;28;20553;-85
2023/05/01 21:50:48;;;;;;;11.73;6.10;;;15.80;93.60;;;;;;10362861;28;20314;-85
2023/05/01 21:55:49;;;;;;;9.88;6.13;;;15.70;93.60;;;;;;10371508;28;20084;-84
2023/05/01 22:00:50;;;;;;;11.38;6.75;;;15.70;93.60;;;;;;10363202;28;20315;-85
2023/05/01 22:05:51;;;;;;;10.85;6.22;;;15.70;93.70;;;;;;10357729;28;20109;-85
2023/05/01 22:10:52;;;;;;;11.82;7.28;;;15.60;93.70;;;;;;10359249;28;20022;-85
2023/05/01 22:15:53;;;;;;;13.40;6.30;;;15.60;93.70;;;;;;10367324;28;20029;-84
2023/05/01 22:20:54;;;;;;;10.77;6.53;;;15.60;93.70;;;;;;10355003;28;20166;-84
2023/05/01 22:25:58;;;;;;;12.85;6.63;;;16.10;93.90;;;;;;10358969;28;20049;-84
2023/05/01 22:30:59;;;;;;;11.73;6.63;;;15.60;93.80;;;;;;10364531;28;20022;-84
2023/05/01 22:35:59;;;;;;;10.63;6.18;;;15.80;93.80;;;;;;10365568;28;20046;-84
2023/05/01 22:41:00;;;;;;;11.55;6.47;;;15.60;93.80;;;;;;10364547;28;20037;-85
2023/05/01 22:46:04;;;;;;;12.27;6.22;;;15.50;93.80;;;;;;10366078;28;20015;-84
2023/05/01 22:51:05;;;;;;;10.02;6.00;;;15.50;93.80;;;;;;10366519;28;20091;-84
2023/05/01 22:56:06;;;;;;;11.40;6.03;;;15.50;93.80;;;;;;10362744;28;20034;-85
2023/05/01 23:01:07;;;;;;;10.93;6.25;;;15.40;93.80;;;;;;10373895;28;20033;-85
2023/05/01 23:06:07;;;;;;;11.10;6.22;;;15.40;93.90;;;;;;10365372;28;20020;-85
2023/05/01 23:11:10;;;;;;;10.25;5.55;;;15.40;93.90;;;;;;10370063;28;20028;-85
2023/05/01 23:16:14;;;;;;;8.52;5.55;;;15.40;93.90;;;;;;10368218;28;20035;-85
2023/05/01 23:21:18;;;;;;;11.05;6.47;;;16.00;94.10;;;;;;10372639;28;20107;-84
2023/05/01 23:26:27;;;;;;;8.38;5.50;;;15.70;94.00;;;;;;10374138;28;20067;-85
2023/05/01 23:31:28;;;;;;;10.48;5.85;;;15.30;94.00;;;;;;10360146;28;20061;-84
2023/05/01 23:36:29;;;;;;;10.85;5.90;;;15.30;93.90;;;;;;10370490;28;20424;-84
2023/05/01 23:41:30;;;;;;;13.02;6.30;;;15.90;94.10;;;;;;10368538;28;20030;-84
2023/05/01 23:46:31;;;;;;;7.40;4.93;;;15.30;94.00;;;;;;10371257;28;20440;-85
2023/05/01 23:51:32;;;;;;;10.65;5.35;;;15.30;94.00;;;;;;10371111;28;20045;-85
2023/05/01 23:56:33;;;;;;;7.70;4.88;;;15.30;94.00;;;;;;10359968;28;20575;-84
